Time;durP1;ratioP1;P1;durP2;ratioP2;P2;SDS_P1;SDS_P2;PMS_P1;PMS_P2;Temp;Humidity;BMP_temperature;BMP_pressure;BME280_temperature;BME280_humidity;BME280_pressure;Samples;Min_cycle;Max_cycle;Signal;HPM_P1;HPM_P2
2022/01/12 00:01:05;;;;;;;;;;;;;;;;;;5136919;27;20360;-71
2022/01/12 00:03:34;;;;;;;;;;;;;;;;;;5119571;27;20399;-71
2022/01/12 00:06:00;;;;;;;;;;;;;;;;;;5119379;27;19960;-71
2022/01/12 00:08:25;;;;;;;;;;;;;;;;;;5136884;27;19922;-71
2022/01/12 00:10:51;;;;;;;;;;;;;;;;;;5137570;27;20384;-71
2022/01/12 00:13:17;;;;;;;;;;;;;;;;;;5137074;27;19922;-71
2022/01/12 00:15:42;;;;;;;;;;;;;;;;;;5119037;27;19915;-71
2022/01/12 00:18:07;;;;;;;;;;;;;;;;;;5137514;27;19915;-71
2022/01/12 00:20:33;;;;;;;;;;;;;;;;;;5119098;27;20002;-71
2022/01/12 00:22:58;;;;;;;;;;;;;;;;;;5137641;27;19916;-71
2022/01/12 00:25:31;;;;;;;;;;;;;;;;;;5137555;27;19916;-71
2022/01/12 00:33:31;;;;;;;;;;;;;;;;;;5118648;27;19923;-71
2022/01/12 00:35:57;;;;;;;;;;;;;;;;;;5118840;27;19923;-71
2022/01/12 00:38:25;;;;;;;;;;;;;;;;;;5136479;27;19919;-71
2022/01/12 00:40:52;;;;;;;;;;;;;;;;;;5118678;27;19922;-71
2022/01/12 00:43:18;;;;;;;;;;;;;;;;;;5118930;27;19915;-71
2022/01/12 00:45:46;;;;;;;;;;;;;;;;;;5101199;27;19916;-71
2022/01/12 00:48:15;;;;;;;;;;;;;;;;;;5118642;27;20018;-71
2022/01/12 00:50:40;;;;;;;;;;;;;;;;;;5136979;27;20002;-71
2022/01/12 00:53:06;;;;;;;;;;;;;;;;;;5118577;27;20030;-73
2022/01/12 00:55:31;;;;;;;;;;;;;;;;;;5118237;27;19945;-72
2022/01/12 00:57:58;;;;;;;;;;;;;;;;;;5136558;27;19915;-73
2022/01/12 01:00:24;;;;;;;;;;;;;;;;;;5136032;27;20018;-73
2022/01/12 01:02:49;;;;;;;;;;;;;;;;;;5137003;27;19915;-72
2022/01/12 01:05:20;;;;;;;;;;;;;;;;;;5100847;27;20292;-72
2022/01/12 01:07:45;;;;;;;;;;;;;;;;;;5136532;27;19921;-72
2022/01/12 01:10:14;;;;;;;;;;;;;;;;;;5117839;27;19915;-71
2022/01/12 01:12:41;;;;;;;;;;;;;;;;;;5117764;27;20056;-72
2022/01/12 01:15:11;;;;;;;;;;;;;;;;;;5117758;27;19915;-71
2022/01/12 01:25:42;;;;;;;;;;;;;;;;;;5136081;27;19919;-71
2022/01/12 01:28:10;;;;;;;;;;;;;;;;;;5135495;27;20003;-71
2022/01/12 01:30:38;;;;;;;;;;;;;;;;;;5117445;27;20273;-71
2022/01/12 01:33:07;;;;;;;;;;;;;;;;;;5117745;27;20288;-71
2022/01/12 01:35:33;;;;;;;;;;;;;;;;;;5135813;27;19937;-71
2022/01/12 01:38:00;;;;;;;;;;;;;;;;;;5135804;27;19964;-71
2022/01/12 01:40:28;;;;;;;;;;;;;;;;;;5117352;27;19983;-71
2022/01/12 01:53:46;;;;;;;;;;;;;;;;;;5116398;27;21301;-71
2022/01/12 01:56:12;;;;;;;;;;;;;;;;;;5116905;27;19961;-70
2022/01/12 01:58:38;;;;;;;;;;;;;;;;;;5116794;27;19915;-71
2022/01/12 02:01:04;;;;;;;;;;;;;;;;;;5116202;27;19922;-70
2022/01/12 02:03:34;;;;;;;;;;;;;;;;;;5100559;27;19916;-71
2022/01/12 02:06:07;;;;;;;;;;;;;;;;;;5117004;27;20384;-71
2022/01/12 02:08:33;;;;;;;;;;;;;;;;;;5134872;27;19929;-71
2022/01/12 02:11:11;;;;;;;;;;;;;;;;;;5116776;27;19998;-71
2022/01/12 02:13:36;;;;;;;;;;;;;;;;;;5116715;27;20027;-71
2022/01/12 02:16:02;;;;;;;;;;;;;;;;;;5116767;27;19919;-71
2022/01/12 02:40:24;;;;;;;;;;;;;;;;;;5096170;27;19919;-71
2022/01/12 02:43:00;;;;;;;;;;;;;;;;;;5116313;28;19922;-71
2022/01/12 02:51:07;;;;;;;;;;;;;;;;;;5134352;28;20280;-71
2022/01/12 02:53:40;;;;;;;;;;;;;;;;;;5116535;28;19926;-71
2022/01/12 02:56:07;;;;;;;;;;;;;;;;;;5116323;28;19915;-71
2022/01/12 02:58:33;;;;;;;;;;;;;;;;;;5134421;27;19922;-71
2022/01/12 03:01:28;;;;;;;;;;;;;;;;;;5116555;28;19916;-71
2022/01/12 03:03:52;;;;;;;;;;;;;;;;;;5115944;28;20348;-71
2022/01/12 03:06:21;;;;;;;;;;;;;;;;;;5133881;28;19916;-71
2022/01/12 03:08:48;;;;;;;;;;;;;;;;;;5116081;28;19922;-71
2022/01/12 03:11:15;;;;;;;;;;;;;;;;;;5116047;28;19919;-71
2022/01/12 03:13:41;;;;;;;;;;;;;;;;;;5115951;28;19954;-72
2022/01/12 03:16:13;;;;;;;;;;;;;;;;;;5133822;28;19915;-72
2022/01/12 03:18:40;;;;;;;;;;;;;;;;;;5134467;27;19916;-72
2022/01/12 03:21:05;;;;;;;;;;;;;;;;;;5117461;27;19916;-72
2022/01/12 03:23:31;;;;;;;;;;;;;;;;;;5119944;27;19915;-73
2022/01/12 03:25:56;;;;;;;;;;;;;;;;;;5119785;27;19923;-73
2022/01/12 03:28:22;;;;;;;;;;;;;;;;;;5119766;27;19915;-73
2022/01/12 03:31:06;;;;;;;;;;;;;;;;;;5119935;27;20336;-73
2022/01/12 03:33:51;;;;;;;;;;;;;;;;;;5119144;27;20009;-73
2022/01/12 03:38:58;;;;;;;;;;;;;;;;;;5138231;27;19998;-73
2022/01/12 03:41:25;;;;;;;;;;;;;;;;;;5138275;27;19919;-73
2022/01/12 03:43:50;;;;;;;;;;;;;;;;;;5137901;27;20002;-73
2022/01/12 03:46:17;;;;;;;;;;;;;;;;;;5138216;27;20004;-73
2022/01/12 03:48:43;;;;;;;;;;;;;;;;;;5119429;27;20010;-73
2022/01/12 03:51:08;;;;;;;;;;;;;;;;;;5119579;27;19957;-73
2022/01/12 03:53:34;;;;;;;;;;;;;;;;;;5119376;27;19964;-73
2022/01/12 03:55:59;;;;;;;;;;;;;;;;;;5137825;27;19915;-72
2022/01/12 03:58:24;;;;;;;;;;;;;;;;;;5137453;27;19916;-72
2022/01/12 04:00:50;;;;;;;;;;;;;;;;;;5137860;27;19922;-72
2022/01/12 04:03:16;;;;;;;;;;;;;;;;;;5119269;27;19915;-72
2022/01/12 04:08:25;;;;;;;;;;;;;;;;;;5132486;27;19916;-72
2022/01/12 04:10:53;;;;;;;;;;;;;;;;;;5098640;28;19969;-72
2022/01/12 04:13:21;;;;;;;;;;;;;;;;;;5098215;28;20392;-72
2022/01/12 04:15:50;;;;;;;;;;;;;;;;;;5098763;28;19920;-71
2022/01/12 04:18:15;;;;;;;;;;;;;;;;;;5081388;28;19951;-72
2022/01/12 04:20:49;;;;;;;;;;;;;;;;;;5098358;28;19955;-71
2022/01/12 04:23:18;;;;;;;;;;;;;;;;;;5098465;28;20018;-72
2022/01/12 04:25:48;;;;;;;;;;;;;;;;;;5098449;28;20357;-71
2022/01/12 04:28:14;;;;;;;;;;;;;;;;;;5116771;28;19915;-72
2022/01/12 04:30:40;;;;;;;;;;;;;;;;;;5116639;28;19912;-72
2022/01/12 04:33:05;;;;;;;;;;;;;;;;;;5116010;28;19919;-72
2022/01/12 04:35:34;;;;;;;;;;;;;;;;;;5116487;28;19916;-72
2022/01/12 04:38:00;;;;;;;;;;;;;;;;;;5098198;28;19957;-71
2022/01/12 04:40:26;;;;;;;;;;;;;;;;;;5098175;28;19951;-71
2022/01/12 04:42:53;;;;;;;;;;;;;;;;;;5098333;28;19927;-71
2022/01/12 04:48:30;;;;;;;;;;;;;;;;;;5083878;28;19982;-72
2022/01/12 04:50:54;;;;;;;;;;;;;;;;;;5097960;28;19922;-72
2022/01/12 04:53:20;;;;;;;;;;;;;;;;;;5097943;28;20262;-72
2022/01/12 04:55:49;;;;;;;;;;;;;;;;;;5097868;28;19923;-71
2022/01/12 04:58:15;;;;;;;;;;;;;;;;;;5097519;28;20276;-72
2022/01/12 05:00:41;;;;;;;;;;;;;;;;;;5097791;28;19916;-72
2022/01/12 05:08:50;;;;;;;;;;;;;;;;;;5117907;27;19923;-72
2022/01/12 05:14:24;;;;;;;;;;;;;;;;;;5052842;28;19925;-72
2022/01/12 05:16:50;;;;;;;;;;;;;;;;;;5036255;28;20349;-72
2022/01/12 05:19:16;;;;;;;;;;;;;;;;;;5093668;27;19958;-72
2022/01/12 05:21:41;;;;;;;;;;;;;;;;;;5117842;27;19967;-72
2022/01/12 05:24:07;;;;;;;;;;;;;;;;;;5118062;27;19923;-72
2022/01/12 05:26:33;;;;;;;;;;;;;;;;;;5117611;27;20021;-72
2022/01/12 05:29:00;;;;;;;;;;;;;;;;;;5117374;27;19961;-72
2022/01/12 05:31:26;;;;;;;;;;;;;;;;;;5136116;27;19950;-72
2022/01/12 05:33:52;;;;;;;;;;;;;;;;;;5116552;27;19928;-72
2022/01/12 05:36:18;;;;;;;;;;;;;;;;;;5135976;27;19938;-72
2022/01/12 05:38:46;;;;;;;;;;;;;;;;;;5117294;27;19950;-72
2022/01/12 05:41:12;;;;;;;;;;;;;;;;;;5117546;27;20407;-72
2022/01/12 05:43:38;;;;;;;;;;;;;;;;;;5099696;27;19915;-72
2022/01/12 05:46:10;;;;;;;;;;;;;;;;;;5135651;27;19916;-72
2022/01/12 05:51:21;;;;;;;;;;;;;;;;;;5112457;28;20394;-72
2022/01/12 05:53:46;;;;;;;;;;;;;;;;;;5113322;28;19920;-72
2022/01/12 05:56:12;;;;;;;;;;;;;;;;;;5113406;28;19942;-72
2022/01/12 05:58:37;;;;;;;;;;;;;;;;;;5113615;28;19923;-72
2022/01/12 06:01:03;;;;;;;;;;;;;;;;;;5113354;28;19951;-72
2022/01/12 06:03:29;;;;;;;;;;;;;;;;;;5114192;28;20413;-72
2022/01/12 06:05:57;;;;;;;;;;;;;;;;;;5113532;28;19915;-72
2022/01/12 06:08:22;;;;;;;;;;;;;;;;;;5113599;28;19919;-72
2022/01/12 06:10:48;;;;;;;;;;;;;;;;;;5112606;28;19923;-72
2022/01/12 06:13:13;;;;;;;;;;;;;;;;;;5114595;28;19959;-72
2022/01/12 06:15:39;;;;;;;;;;;;;;;;;;5114641;28;19916;-72
2022/01/12 06:18:04;;;;;;;;;;;;;;;;;;5113390;28;19919;-72
2022/01/12 06:20:29;;;;;;;;;;;;;;;;;;5114424;27;19915;-72
2022/01/12 06:23:30;;;;;;;;;;;;;;;;;;5102610;28;19916;-72
2022/01/12 06:25:56;;;;;;;;;;;;;;;;;;5113336;28;19973;-72
2022/01/12 06:28:54;;;;;;;;;;;;;;;;;;5114519;28;20283;-72
2022/01/12 06:31:13;;;;;;;;;;;;;;;;;;5113966;28;20018;-72
2022/01/12 06:33:40;;;;;;;;;;;;;;;;;;5114174;28;20373;-72
2022/01/12 06:36:05;;;;;;;;;;;;;;;;;;5113209;28;20300;-72
2022/01/12 06:38:31;;;;;;;;;;;;;;;;;;5113036;28;19916;-72
2022/01/12 06:40:56;;;;;;;;;;;;;;;;;;5113052;28;19916;-72
2022/01/12 06:43:22;;;;;;;;;;;;;;;;;;5113124;28;19920;-71
2022/01/12 06:45:47;;;;;;;;;;;;;;;;;;5112455;28;20277;-71
2022/01/12 06:48:12;;;;;;;;;;;;;;;;;;5113008;28;19967;-73
2022/01/12 06:50:38;;;;;;;;;;;;;;;;;;5113068;28;20273;-72
2022/01/12 06:53:03;;;;;;;;;;;;;;;;;;5112912;28;19923;-72
2022/01/12 06:55:28;;;;;;;;;;;;;;;;;;5116526;28;19931;-72
2022/01/12 06:57:55;;;;;;;;;;;;;;;;;;5119444;28;19955;-72
2022/01/12 07:00:21;;;;;;;;;;;;;;;;;;5121003;28;19943;-72
2022/01/12 07:02:47;;;;;;;;;;;;;;;;;;5102729;28;19916;-71
2022/01/12 07:05:15;;;;;;;;;;;;;;;;;;5118856;28;20422;-72
2022/01/12 07:07:40;;;;;;;;;;;;;;;;;;5102390;28;19916;-72
2022/01/12 07:10:11;;;;;;;;;;;;;;;;;;5119727;28;19963;-71
2022/01/12 07:12:39;;;;;;;;;;;;;;;;;;5119074;28;19920;-71
2022/01/12 07:15:07;;;;;;;;;;;;;;;;;;5119609;28;19920;-72
2022/01/12 07:17:33;;;;;;;;;;;;;;;;;;5119265;28;19937;-72
2022/01/12 07:19:59;;;;;;;;;;;;;;;;;;5119747;28;19915;-72
2022/01/12 07:22:24;;;;;;;;;;;;;;;;;;5119597;28;20467;-73
2022/01/12 07:24:50;;;;;;;;;;;;;;;;;;5121258;28;19943;-73
2022/01/12 07:27:15;;;;;;;;;;;;;;;;;;5121052;27;19966;-73
2022/01/12 07:29:40;;;;;;;;;;;;;;;;;;5119818;28;19927;-73
2022/01/12 07:32:06;;;;;;;;;;;;;;;;;;5121001;28;19912;-73
2022/01/12 07:34:31;;;;;;;;;;;;;;;;;;5119820;28;19927;-72
2022/01/12 07:36:56;;;;;;;;;;;;;;;;;;5120917;27;19916;-72
2022/01/12 07:39:21;;;;;;;;;;;;;;;;;;5120975;28;19927;-73
2022/01/12 07:41:47;;;;;;;;;;;;;;;;;;5120225;28;19922;-72
2022/01/12 07:44:12;;;;;;;;;;;;;;;;;;5120915;28;19916;-73
2022/01/12 07:46:38;;;;;;;;;;;;;;;;;;5119688;28;19920;-74
2022/01/12 07:49:03;;;;;;;;;;;;;;;;;;5137623;27;19919;-74
2022/01/12 07:51:28;;;;;;;;;;;;;;;;;;5141289;27;19916;-73
2022/01/12 07:53:53;;;;;;;;;;;;;;;;;;5140676;27;20010;-73
2022/01/12 07:56:19;;;;;;;;;;;;;;;;;;5140806;27;19916;-73
2022/01/12 07:58:44;;;;;;;;;;;;;;;;;;5141029;27;19923;-73
2022/01/12 08:01:10;;;;;;;;;;;;;;;;;;5140198;27;20322;-73
2022/01/12 08:03:35;;;;;;;;;;;;;;;;;;5122756;27;19922;-73
2022/01/12 08:06:01;;;;;;;;;;;;;;;;;;5140279;27;20048;-73
2022/01/12 08:08:26;;;;;;;;;;;;;;;;;;5136858;27;19962;-74
2022/01/12 08:10:52;;;;;;;;;;;;;;;;;;5139133;27;19919;-76
2022/01/12 08:13:17;;;;;;;;;;;;;;;;;;5122816;27;19919;-76
2022/01/12 08:15:43;;;;;;;;;;;;;;;;;;5123053;27;19915;-77
2022/01/12 08:18:09;;;;;;;;;;;;;;;;;;5138915;27;19919;-76
2022/01/12 08:20:34;;;;;;;;;;;;;;;;;;5118955;27;20338;-75
2022/01/12 08:22:59;;;;;;;;;;;;;;;;;;5136447;27;19911;-75
2022/01/12 08:25:25;;;;;;;;;;;;;;;;;;5137363;27;19915;-75
2022/01/12 08:27:51;;;;;;;;;;;;;;;;;;5119279;27;19921;-76
2022/01/12 08:30:18;;;;;;;;;;;;;;;;;;5138036;27;20285;-76
2022/01/12 08:32:45;;;;;;;;;;;;;;;;;;5119060;27;19919;-75
2022/01/12 08:35:10;;;;;;;;;;;;;;;;;;5136722;27;19923;-75
2022/01/12 08:37:36;;;;;;;;;;;;;;;;;;5118886;27;20252;-77
2022/01/12 08:40:02;;;;;;;;;;;;;;;;;;5137110;27;19919;-77
2022/01/12 08:42:28;;;;;;;;;;;;;;;;;;5137300;27;20021;-77
2022/01/12 08:44:53;;;;;;;;;;;;;;;;;;5137524;27;19954;-77
2022/01/12 08:47:18;;;;;;;;;;;;;;;;;;5136887;27;19967;-75
2022/01/12 08:49:44;;;;;;;;;;;;;;;;;;5137046;27;19968;-76
2022/01/12 08:52:09;;;;;;;;;;;;;;;;;;5137028;27;19923;-75
2022/01/12 08:54:35;;;;;;;;;;;;;;;;;;5136932;27;20420;-75
2022/01/12 08:57:01;;;;;;;;;;;;;;;;;;5117432;27;20006;-75
2022/01/12 08:59:27;;;;;;;;;;;;;;;;;;5135810;27;20017;-75
2022/01/12 09:01:52;;;;;;;;;;;;;;;;;;5117742;27;19915;-75
2022/01/12 09:04:17;;;;;;;;;;;;;;;;;;5136844;27;19953;-75
2022/01/12 09:06:43;;;;;;;;;;;;;;;;;;5118218;27;19915;-75
2022/01/12 09:09:08;;;;;;;;;;;;;;;;;;5136843;27;19915;-75
2022/01/12 09:11:33;;;;;;;;;;;;;;;;;;5136495;27;20395;-75
2022/01/12 09:13:59;;;;;;;;;;;;;;;;;;5136532;27;19920;-75
2022/01/12 09:16:24;;;;;;;;;;;;;;;;;;5135210;27;19947;-75
2022/01/12 09:18:49;;;;;;;;;;;;;;;;;;5134568;27;19922;-75
2022/01/12 09:21:15;;;;;;;;;;;;;;;;;;5136327;27;19915;-75
2022/01/12 09:23:40;;;;;;;;;;;;;;;;;;5136495;27;19915;-75
2022/01/12 09:26:05;;;;;;;;;;;;;;;;;;5136268;27;19968;-75
2022/01/12 09:28:31;;;;;;;;;;;;;;;;;;5136114;27;19922;-75
2022/01/12 09:30:56;;;;;;;;;;;;;;;;;;5136167;27;19915;-75
2022/01/12 09:33:22;;;;;;;;;;;;;;;;;;5135930;27;20018;-75
2022/01/12 09:35:49;;;;;;;;;;;;;;;;;;5135233;27;19929;-75
2022/01/12 09:38:16;;;;;;;;;;;;;;;;;;5135935;27;20326;-75
2022/01/12 09:40:43;;;;;;;;;;;;;;;;;;5135793;27;20383;-75
2022/01/12 09:43:09;;;;;;;;;;;;;;;;;;5100681;27;19963;-75
2022/01/12 09:45:35;;;;;;;;;;;;;;;;;;5135834;27;20346;-74
2022/01/12 09:48:00;;;;;;;;;;;;;;;;;;5135517;27;19919;-75
2022/01/12 09:50:26;;;;;;;;;;;;;;;;;;5117454;27;19915;-75
2022/01/12 09:52:52;;;;;;;;;;;;;;;;;;5135555;27;19927;-75
2022/01/12 09:55:18;;;;;;;;;;;;;;;;;;5117178;27;20349;-75
2022/01/12 09:57:43;;;;;;;;;;;;;;;;;;5135338;27;19919;-75
2022/01/12 10:00:10;;;;;;;;;;;;;;;;;;5135384;27;19922;-75
2022/01/12 10:02:40;;;;;;;;;;;;;;;;;;5135521;27;19922;-75
2022/01/12 10:05:07;;;;;;;;;;;;;;;;;;5135361;27;19915;-75
2022/01/12 10:07:33;;;;;;;;;;;;;;;;;;5135389;27;20346;-75
2022/01/12 10:10:01;;;;;;;;;;;;;;;;;;5135525;27;19929;-75
2022/01/12 10:12:27;;;;;;;;;;;;;;;;;;5135336;27;20316;-74
2022/01/12 10:14:59;;;;;;;;;;;;;;;;;;5100580;27;19922;-75
2022/01/12 10:17:41;;;;;;;;;;;;;;;;;;5134496;27;20314;-75
2022/01/12 10:20:11;;;;;;;;;;;;;;;;;;5135247;27;19922;-75
2022/01/12 10:22:37;;;;;;;;;;;;;;;;;;5135225;27;19946;-75
2022/01/12 10:25:13;;;;;;;;;;;;;;;;;;5135287;27;20430;-75
2022/01/12 10:27:38;;;;;;;;;;;;;;;;;;5116527;27;19955;-76
2022/01/12 10:30:05;;;;;;;;;;;;;;;;;;5116578;27;19966;-78
2022/01/12 10:32:31;;;;;;;;;;;;;;;;;;5136032;27;20015;-72
2022/01/12 10:34:58;;;;;;;;;;;;;;;;;;5135403;27;20018;-75
2022/01/12 10:37:26;;;;;;;;;;;;;;;;;;5134427;27;20371;-75
2022/01/12 10:39:54;;;;;;;;;;;;;;;;;;5134916;27;19961;-75
2022/01/12 10:42:20;;;;;;;;;;;;;;;;;;5135006;27;20009;-73
2022/01/12 10:44:50;;;;;;;;;;;;;;;;;;5136521;27;20015;-75
2022/01/12 10:47:18;;;;;;;;;;;;;;;;;;5107799;28;20390;-75
2022/01/12 10:49:56;;;;;;;;;;;;;;;;;;5126671;27;19954;-76
2022/01/12 10:52:21;;;;;;;;;;;;;;;;;;5108494;28;20330;-75
2022/01/12 10:54:51;;;;;;;;;;;;;;;;;;5109754;28;19919;-75
2022/01/12 10:57:18;;;;;;;;;;;;;;;;;;5091281;28;20000;-75
2022/01/12 11:00:07;;;;;;;;;;;;;;;;;;5097947;28;19953;-76
2022/01/12 11:02:33;;;;;;;;;;;;;;;;;;5106471;28;20286;-76
2022/01/12 11:04:59;;;;;;;;;;;;;;;;;;5117578;28;19915;-77
2022/01/12 11:07:25;;;;;;;;;;;;;;;;;;5137567;27;19958;-76
2022/01/12 11:09:53;;;;;;;;;;;;;;;;;;5120106;28;19915;-78
2022/01/12 11:12:19;;;;;;;;;;;;;;;;;;5139224;28;19922;-78
2022/01/12 11:14:44;;;;;;;;;;;;;;;;;;5140042;28;20369;-76
2022/01/12 11:17:09;;;;;;;;;;;;;;;;;;5135877;28;19915;-79
2022/01/12 11:19:36;;;;;;;;;;;;;;;;;;5093606;28;19916;-79
2022/01/12 11:22:12;;;;;;;;;;;;;;;;;;5130399;28;19922;-79
2022/01/12 11:24:38;;;;;;;;;;;;;;;;;;5109519;28;19916;-79
2022/01/12 11:27:05;;;;;;;;;;;;;;;;;;5126375;28;19931;-78
2022/01/12 11:29:34;;;;;;;;;;;;;;;;;;5109590;28;19916;-78
2022/01/12 11:32:07;;;;;;;;;;;;;;;;;;5128809;28;19916;-79
2022/01/12 11:34:33;;;;;;;;;;;;;;;;;;5110184;28;19923;-78
2022/01/12 11:36:58;;;;;;;;;;;;;;;;;;5124964;28;19916;-81
2022/01/12 11:39:32;;;;;;;;;;;;;;;;;;5100975;28;20060;-80
2022/01/12 11:41:58;;;;;;;;;;;;;;;;;;5102089;28;19924;-80
2022/01/12 11:44:24;;;;;;;;;;;;;;;;;;5120751;28;19923;-76
2022/01/12 11:46:54;;;;;;;;;;;;;;;;;;5128671;27;20400;-75
2022/01/12 11:49:25;;;;;;;;;;;;;;;;;;5138098;27;20020;-75
2022/01/12 11:51:50;;;;;;;;;;;;;;;;;;5138504;27;19916;-75
2022/01/12 11:54:17;;;;;;;;;;;;;;;;;;5119854;27;20323;-75
2022/01/12 11:57:02;;;;;;;;;;;;;;;;;;5138294;27;20392;-75
2022/01/12 11:59:28;;;;;;;;;;;;;;;;;;5138273;27;19911;-76
2022/01/12 12:02:04;;;;;;;;;;;;;;;;;;5138451;27;19916;-75
2022/01/12 12:04:30;;;;;;;;;;;;;;;;;;5119720;27;19915;-75
2022/01/12 12:07:02;;;;;;;;;;;;;;;;;;5138506;27;19998;-75
2022/01/12 12:09:34;;;;;;;;;;;;;;;;;;5137637;27;19919;-75
2022/01/12 12:12:00;;;;;;;;;;;;;;;;;;5119875;27;19962;-75
2022/01/12 12:14:25;;;;;;;;;;;;;;;;;;5137885;27;20356;-75
2022/01/12 12:16:51;;;;;;;;;;;;;;;;;;5119860;27;19923;-76
2022/01/12 12:19:18;;;;;;;;;;;;;;;;;;5138250;27;19915;-75
2022/01/12 12:21:48;;;;;;;;;;;;;;;;;;5120009;27;19916;-76
2022/01/12 12:24:14;;;;;;;;;;;;;;;;;;5138268;27;19922;-75
2022/01/12 12:26:54;;;;;;;;;;;;;;;;;;5138058;27;19922;-75
2022/01/12 12:29:25;;;;;;;;;;;;;;;;;;5119891;27;20030;-75
2022/01/12 12:31:51;;;;;;;;;;;;;;;;;;5137321;27;19915;-76
2022/01/12 12:34:17;;;;;;;;;;;;;;;;;;5119593;27;20014;-75
2022/01/12 12:36:42;;;;;;;;;;;;;;;;;;5137654;27;20439;-75
2022/01/12 12:39:09;;;;;;;;;;;;;;;;;;5137667;27;19922;-76
2022/01/12 12:41:52;;;;;;;;;;;;;;;;;;5137751;27;20268;-75
2022/01/12 12:44:27;;;;;;;;;;;;;;;;;;5137373;27;20342;-76
2022/01/12 12:47:04;;;;;;;;;;;;;;;;;;5137654;27;19927;-76
2022/01/12 12:49:29;;;;;;;;;;;;;;;;;;5137683;27;19964;-76
2022/01/12 12:52:01;;;;;;;;;;;;;;;;;;5137687;27;20006;-75
2022/01/12 12:54:27;;;;;;;;;;;;;;;;;;5137030;27;19919;-75
2022/01/12 12:56:54;;;;;;;;;;;;;;;;;;5137051;27;19923;-75
2022/01/12 12:59:20;;;;;;;;;;;;;;;;;;5137521;27;19915;-75
2022/01/12 13:01:45;;;;;;;;;;;;;;;;;;5118284;27;19923;-75
2022/01/12 13:04:11;;;;;;;;;;;;;;;;;;5137296;27;20376;-76
2022/01/12 13:06:36;;;;;;;;;;;;;;;;;;5136958;27;19930;-75
2022/01/12 13:09:05;;;;;;;;;;;;;;;;;;5136774;27;19960;-75
2022/01/12 13:11:31;;;;;;;;;;;;;;;;;;5137242;27;19965;-76
2022/01/12 13:13:58;;;;;;;;;;;;;;;;;;5136598;27;19923;-74
2022/01/12 13:16:26;;;;;;;;;;;;;;;;;;5136354;27;19915;-74
2022/01/12 13:18:51;;;;;;;;;;;;;;;;;;5136339;27;19931;-74
2022/01/12 13:21:17;;;;;;;;;;;;;;;;;;5136424;27;20241;-74
2022/01/12 13:23:42;;;;;;;;;;;;;;;;;;5136193;27;20369;-74
2022/01/12 13:26:08;;;;;;;;;;;;;;;;;;5135574;27;20002;-75
2022/01/12 13:28:35;;;;;;;;;;;;;;;;;;5134606;27;19912;-74
2022/01/12 13:31:03;;;;;;;;;;;;;;;;;;5135615;27;20391;-74
2022/01/12 13:33:33;;;;;;;;;;;;;;;;;;5134946;27;19919;-74
2022/01/12 13:36:09;;;;;;;;;;;;;;;;;;5135960;27;19915;-74
2022/01/12 13:38:34;;;;;;;;;;;;;;;;;;5135912;27;19916;-74
2022/01/12 13:41:29;;;;;;;;;;;;;;;;;;5136098;27;19915;-74
2022/01/12 13:43:59;;;;;;;;;;;;;;;;;;5113819;27;19915;-75
2022/01/12 13:46:38;;;;;;;;;;;;;;;;;;5135862;27;19915;-75
2022/01/12 13:51:41;;;;;;;;;;;;;;;;;;5135602;27;20007;-75
2022/01/12 13:54:07;;;;;;;;;;;;;;;;;;5135374;27;19919;-74
2022/01/12 13:56:37;;;;;;;;;;;;;;;;;;5135719;27;19945;-74
2022/01/12 13:59:03;;;;;;;;;;;;;;;;;;5135323;27;20392;-74
2022/01/12 14:01:36;;;;;;;;;;;;;;;;;;5135428;27;19954;-74
2022/01/12 14:04:12;;;;;;;;;;;;;;;;;;5134367;27;20009;-75
2022/01/12 14:06:39;;;;;;;;;;;;;;;;;;5135363;27;19915;-75
2022/01/12 14:09:09;;;;;;;;;;;;;;;;;;5135386;27;20306;-74
2022/01/12 14:11:37;;;;;;;;;;;;;;;;;;5135561;27;19915;-74
2022/01/12 14:14:03;;;;;;;;;;;;;;;;;;5135380;27;19923;-74
2022/01/12 14:16:30;;;;;;;;;;;;;;;;;;5135374;27;20002;-75
2022/01/12 14:18:59;;;;;;;;;;;;;;;;;;5135134;27;19916;-75
2022/01/12 14:21:24;;;;;;;;;;;;;;;;;;5135275;27;20009;-75
2022/01/12 14:23:49;;;;;;;;;;;;;;;;;;5133832;27;19958;-74
2022/01/12 14:26:19;;;;;;;;;;;;;;;;;;5133824;27;19919;-75
2022/01/12 14:28:44;;;;;;;;;;;;;;;;;;5134758;27;19924;-75
2022/01/12 14:31:09;;;;;;;;;;;;;;;;;;5134914;27;20337;-74
2022/01/12 14:33:35;;;;;;;;;;;;;;;;;;5134875;27;20314;-74
2022/01/12 14:36:00;;;;;;;;;;;;;;;;;;5134840;27;19915;-74
2022/01/12 14:38:25;;;;;;;;;;;;;;;;;;5134927;27;19915;-75
2022/01/12 14:40:50;;;;;;;;;;;;;;;;;;5135042;27;20002;-75
2022/01/12 14:43:16;;;;;;;;;;;;;;;;;;5134921;27;19922;-75
2022/01/12 14:45:42;;;;;;;;;;;;;;;;;;5134385;27;20291;-74
2022/01/12 14:48:09;;;;;;;;;;;;;;;;;;5134539;27;20364;-75
2022/01/12 14:50:34;;;;;;;;;;;;;;;;;;5116502;27;19916;-75
2022/01/12 14:53:01;;;;;;;;;;;;;;;;;;5134792;27;19926;-74
2022/01/12 14:55:27;;;;;;;;;;;;;;;;;;5134880;28;19916;-75
2022/01/12 14:57:52;;;;;;;;;;;;;;;;;;5134570;27;20304;-75
2022/01/12 15:00:24;;;;;;;;;;;;;;;;;;5134845;28;19960;-74
2022/01/12 15:02:54;;;;;;;;;;;;;;;;;;5134036;28;19998;-75
2022/01/12 15:05:20;;;;;;;;;;;;;;;;;;5134839;28;19915;-74
2022/01/12 15:07:46;;;;;;;;;;;;;;;;;;5134656;27;20307;-75
2022/01/12 15:10:11;;;;;;;;;;;;;;;;;;5134644;28;20486;-75
2022/01/12 15:12:38;;;;;;;;;;;;;;;;;;5134458;28;19923;-75
2022/01/12 15:15:07;;;;;;;;;;;;;;;;;;5134694;28;19968;-74
2022/01/12 15:17:33;;;;;;;;;;;;;;;;;;5139258;27;20299;-76
2022/01/12 15:19:59;;;;;;;;;;;;;;;;;;5107188;27;19915;-76
2022/01/12 15:22:24;;;;;;;;;;;;;;;;;;5123113;27;20338;-76
2022/01/12 15:24:50;;;;;;;;;;;;;;;;;;5139366;27;19915;-75
2022/01/12 15:27:15;;;;;;;;;;;;;;;;;;5120514;27;20394;-75
2022/01/12 15:29:41;;;;;;;;;;;;;;;;;;5139020;27;19915;-75
2022/01/12 15:32:06;;;;;;;;;;;;;;;;;;5138964;27;19924;-75
2022/01/12 15:34:31;;;;;;;;;;;;;;;;;;5139114;27;20018;-76
2022/01/12 15:36:57;;;;;;;;;;;;;;;;;;5141363;27;19966;-77
2022/01/12 15:39:22;;;;;;;;;;;;;;;;;;5120949;27;19966;-76
2022/01/12 15:41:47;;;;;;;;;;;;;;;;;;5137710;27;20017;-76
2022/01/12 15:44:13;;;;;;;;;;;;;;;;;;5137865;27;19923;-77
2022/01/12 15:46:39;;;;;;;;;;;;;;;;;;5132127;27;19922;-76
2022/01/12 15:49:04;;;;;;;;;;;;;;;;;;5128097;27;19920;-76
2022/01/12 15:51:30;;;;;;;;;;;;;;;;;;5126474;27;19942;-77
2022/01/12 15:53:55;;;;;;;;;;;;;;;;;;5127386;27;19937;-77
2022/01/12 15:56:21;;;;;;;;;;;;;;;;;;5126030;27;19920;-77
2022/01/12 15:58:46;;;;;;;;;;;;;;;;;;5129505;27;19915;-78
2022/01/12 16:01:12;;;;;;;;;;;;;;;;;;5130708;27;20006;-77
2022/01/12 16:03:37;;;;;;;;;;;;;;;;;;5127033;27;20006;-77
2022/01/12 16:06:02;;;;;;;;;;;;;;;;;;5110350;27;19920;-77
2022/01/12 16:08:28;;;;;;;;;;;;;;;;;;5126529;27;19915;-77
2022/01/12 16:10:54;;;;;;;;;;;;;;;;;;5127895;27;20016;-77
2022/01/12 16:13:20;;;;;;;;;;;;;;;;;;5128686;27;19926;-77
2022/01/12 16:15:45;;;;;;;;;;;;;;;;;;5126216;27;20460;-77
2022/01/12 16:18:11;;;;;;;;;;;;;;;;;;5127603;27;19915;-76
2022/01/12 16:20:36;;;;;;;;;;;;;;;;;;5127151;27;20015;-76
2022/01/12 16:23:04;;;;;;;;;;;;;;;;;;5107591;27;19946;-76
2022/01/12 16:25:30;;;;;;;;;;;;;;;;;;5126104;27;19915;-76
2022/01/12 16:27:56;;;;;;;;;;;;;;;;;;5125740;27;19922;-76
2022/01/12 16:30:31;;;;;;;;;;;;;;;;;;5127709;27;19998;-76
2022/01/12 16:32:56;;;;;;;;;;;;;;;;;;5126854;27;19927;-76
2022/01/12 16:35:22;;;;;;;;;;;;;;;;;;5125595;27;19919;-76
2022/01/12 16:37:47;;;;;;;;;;;;;;;;;;5109266;27;19916;-76
2022/01/12 16:40:12;;;;;;;;;;;;;;;;;;5126882;27;20010;-76
2022/01/12 16:42:37;;;;;;;;;;;;;;;;;;5126819;27;19961;-75
2022/01/12 16:45:04;;;;;;;;;;;;;;;;;;5125352;27;19937;-75
2022/01/12 16:47:34;;;;;;;;;;;;;;;;;;5125917;27;19926;-78
2022/01/12 16:50:00;;;;;;;;;;;;;;;;;;5140829;27;19919;-78
2022/01/12 16:52:25;;;;;;;;;;;;;;;;;;5139883;27;20052;-78
2022/01/12 16:54:50;;;;;;;;;;;;;;;;;;5139256;27;19920;-78
2022/01/12 16:57:18;;;;;;;;;;;;;;;;;;5138979;27;20337;-78
2022/01/12 16:59:45;;;;;;;;;;;;;;;;;;5139121;27;19922;-78
2022/01/12 17:02:10;;;;;;;;;;;;;;;;;;5121521;27;19922;-78
2022/01/12 17:04:35;;;;;;;;;;;;;;;;;;5121910;27;19953;-78
2022/01/12 17:07:01;;;;;;;;;;;;;;;;;;5139827;27;19958;-78
2022/01/12 17:09:26;;;;;;;;;;;;;;;;;;5121214;27;19968;-78
2022/01/12 17:11:51;;;;;;;;;;;;;;;;;;5121249;27;20329;-78
2022/01/12 17:14:17;;;;;;;;;;;;;;;;;;5139479;27;19926;-78
2022/01/12 17:16:42;;;;;;;;;;;;;;;;;;5120707;27;20429;-79
2022/01/12 17:19:11;;;;;;;;;;;;;;;;;;5139621;27;19960;-79
2022/01/12 17:21:38;;;;;;;;;;;;;;;;;;5139435;27;19938;-79
2022/01/12 17:24:04;;;;;;;;;;;;;;;;;;5122163;27;19915;-78
2022/01/12 17:26:42;;;;;;;;;;;;;;;;;;5137875;27;19922;-78
2022/01/12 17:29:17;;;;;;;;;;;;;;;;;;5137144;27;19915;-78
2022/01/12 17:31:44;;;;;;;;;;;;;;;;;;5116741;28;19920;-78
2022/01/12 17:34:11;;;;;;;;;;;;;;;;;;5134104;27;20456;-78
2022/01/12 17:36:36;;;;;;;;;;;;;;;;;;5137246;27;19915;-77
2022/01/12 17:39:05;;;;;;;;;;;;;;;;;;5135954;27;19972;-78
2022/01/12 17:41:31;;;;;;;;;;;;;;;;;;5118514;27;20311;-77
2022/01/12 17:43:56;;;;;;;;;;;;;;;;;;5137315;27;19915;-78
2022/01/12 17:46:21;;;;;;;;;;;;;;;;;;5138459;27;19991;-78
2022/01/12 17:48:47;;;;;;;;;;;;;;;;;;5135952;27;19923;-78
2022/01/12 17:51:13;;;;;;;;;;;;;;;;;;5136344;27;20288;-78
2022/01/12 17:53:38;;;;;;;;;;;;;;;;;;5136157;27;20019;-78
2022/01/12 17:56:05;;;;;;;;;;;;;;;;;;5118717;27;20393;-78
2022/01/12 17:58:30;;;;;;;;;;;;;;;;;;5137025;27;19965;-78
2022/01/12 18:00:56;;;;;;;;;;;;;;;;;;5100651;27;19962;-77